Terminal Aerodrome Forecast
Issued by NWS

Home | Current Version | Previous Version | Text Only | Print | Product List | Glossary On
Versions: 1 2 3 4 5 6 7 8 9 10 11 12
000
FTUS42 KTAE 041720
TAFVLD
TAF
KVLD 041720Z 0418/0518 15007G15KT P6SM BKN040
     FM050000 17003KT 5SM -RA SCT015 BKN060
     FM051000 17004KT 4SM -RA BR BKN015
     FM051300 18006KT P6SM -RA BKN010=

USA.gov is the U.S. government's official web portal to all federal, state and local government web resources and services.